createdAt,value
2022-11-01T00:04:06.019Z,100667.13
2022-11-01T00:09:09.377Z,100664.75
2022-11-01T00:14:13.770Z,100657.00
2022-11-01T00:19:18.594Z,100666.81
2022-11-01T00:24:22.029Z,100658.25
2022-11-01T00:29:25.370Z,100640.19
2022-11-01T00:34:30.139Z,100645.50
2022-11-01T00:39:33.506Z,100638.00
2022-11-01T00:44:36.886Z,100644.03
2022-11-01T00:49:41.597Z,100634.31
2022-11-01T00:54:44.993Z,100630.94
2022-11-01T00:59:48.374Z,100621.47
2022-11-01T01:04:53.236Z,100627.81
2022-11-01T01:09:56.603Z,100624.28
2022-11-01T01:14:59.960Z,100608.69
2022-11-01T01:20:04.953Z,100631.22
2022-11-01T01:25:08.666Z,100614.03
2022-11-01T01:30:12.708Z,100621.84
2022-11-01T01:35:17.489Z,100610.72
2022-11-01T01:40:20.979Z,100607.22
2022-11-01T01:45:29.532Z,100613.34
2022-11-01T01:50:36.476Z,100614.25
2022-11-01T01:55:43.428Z,100610.09
2022-11-01T02:00:46.990Z,100618.84
2022-11-01T02:05:53.192Z,100620.72
2022-11-01T02:10:57.993Z,100617.22
2022-11-01T02:16:22.395Z,100618.94
2022-11-01T02:21:43.650Z,100618.03
2022-11-01T02:27:02.512Z,100621.59
2022-11-01T02:32:15.375Z,100626.03
2022-11-01T02:37:24.113Z,100623.34
2022-11-01T02:42:30.065Z,100620.66
2022-11-01T02:47:35.117Z,100617.25
2022-11-01T02:52:39.309Z,100636.38
2022-11-01T02:57:42.962Z,100626.13
2022-11-01T03:02:48.536Z,100656.72
2022-11-01T03:07:53.901Z,100668.91
2022-11-01T03:13:05.966Z,100692.06
2022-11-01T03:18:14.045Z,100693.69
2022-11-01T03:23:20.383Z,100707.22
2022-11-01T03:28:25.561Z,100725.19
2022-11-01T03:33:32.087Z,100726.50
2022-11-01T03:38:37.482Z,100731.50
2022-11-01T03:43:41.527Z,100746.72
2022-11-01T03:48:46.299Z,100765.56
2022-11-01T03:53:49.784Z,100769.78
2022-11-01T03:58:53.217Z,100773.13
2022-11-01T04:03:57.942Z,100783.22
2022-11-01T04:09:01.344Z,100804.53
2022-11-01T04:14:22.113Z,100808.81
2022-11-01T04:19:43.638Z,100820.78
2022-11-01T04:24:46.976Z,100826.47
2022-11-01T04:29:50.331Z,100833.97
2022-11-01T04:34:55.070Z,100836.47
2022-11-01T04:39:58.461Z,100851.09
2022-11-01T04:45:01.800Z,100873.50
2022-11-01T04:50:07.213Z,100873.22
2022-11-01T04:55:10.814Z,100890.41
2022-11-01T05:00:14.853Z,100894.53
2022-11-01T05:05:19.995Z,100895.09
2022-11-01T05:10:23.397Z,100917.41
2022-11-01T05:15:26.859Z,100920.59
2022-11-01T05:20:31.978Z,100929.28
2022-11-01T05:25:38.063Z,100953.09
2022-11-01T05:30:42.263Z,100948.44
2022-11-01T05:35:46.948Z,100949.25
2022-11-01T05:40:50.526Z,100954.16
2022-11-01T05:45:53.908Z,100958.28
2022-11-01T05:50:58.642Z,100973.63
2022-11-01T05:56:02.129Z,100969.22
2022-11-01T06:01:06.419Z,100982.63
2022-11-01T06:06:11.833Z,100979.97
2022-11-01T06:11:16.001Z,101004.22
2022-11-01T06:16:19.431Z,101006.56
2022-11-01T06:21:27.615Z,101024.47
2022-11-01T06:26:33.436Z,101035.56
2022-11-01T06:31:36.880Z,101033.63
2022-11-01T06:36:42.845Z,101022.22
2022-11-01T06:41:46.186Z,101024.72
2022-11-01T06:46:49.571Z,101039.06
2022-11-01T06:51:54.419Z,101039.00
2022-11-01T06:56:58.109Z,101068.47
2022-11-01T07:02:01.829Z,101068.38
2022-11-01T07:07:06.843Z,101075.91
2022-11-01T07:12:10.242Z,101073.19
2022-11-01T07:17:13.806Z,101106.81
2022-11-01T07:22:18.512Z,101105.03
2022-11-01T07:27:22.011Z,101131.06
2022-11-01T07:32:25.475Z,101122.41
2022-11-01T07:37:31.295Z,101132.47
2022-11-01T07:42:34.787Z,101148.94
2022-11-01T07:47:38.210Z,101140.19
2022-11-01T07:52:42.944Z,101168.84
2022-11-01T07:57:46.808Z,101155.47
2022-11-01T08:02:50.589Z,101171.69
2022-11-01T08:07:55.332Z,101170.28
2022-11-01T08:13:02.794Z,101184.47
2022-11-01T08:18:06.686Z,101186.41
2022-11-01T08:23:11.625Z,101183.84
2022-11-01T08:28:15.918Z,101189.56
2022-11-01T08:33:19.332Z,101190.09
2022-11-01T08:38:24.158Z,101202.47
2022-11-01T08:43:27.594Z,101210.56
2022-11-01T08:48:30.994Z,101214.25
2022-11-01T08:53:35.853Z,101216.34
2022-11-01T08:58:39.234Z,101242.44
2022-11-01T09:03:42.800Z,101229.19
2022-11-01T09:08:47.538Z,101230.31
2022-11-01T09:13:51.233Z,101239.25
2022-11-01T09:18:54.769Z,101248.72
2022-11-01T09:23:59.912Z,101285.22
2022-11-01T09:29:04.099Z,101254.84
2022-11-01T09:34:07.502Z,101277.53
2022-11-01T09:39:13.107Z,101293.91
2022-11-01T09:44:18.566Z,101279.75
2022-11-01T09:52:54.157Z,101320.94
2022-11-01T09:58:04.205Z,101320.94
2022-11-01T10:03:22.849Z,101310.31
2022-11-01T10:08:39.158Z,101325.13
2022-11-01T10:13:52.902Z,101324.41
2022-11-01T10:19:04.457Z,101324.28
2022-11-01T10:24:19.198Z,101340.81
2022-11-01T10:29:29.053Z,101320.19
2022-11-01T10:34:38.254Z,101332.00
2022-11-01T10:39:55.607Z,101342.41
2022-11-01T10:45:06.484Z,101340.28
2022-11-01T10:50:18.237Z,101327.91
2022-11-01T10:55:27.259Z,101334.78
2022-11-01T11:00:33.631Z,101337.97
2022-11-01T11:05:37.391Z,101337.66
2022-11-01T11:10:43.371Z,101337.81
2022-11-01T11:15:52.496Z,101334.84
2022-11-01T11:21:00.145Z,101333.81
2022-11-01T11:26:09.133Z,101321.81
2022-11-01T11:31:15.372Z,101333.41
2022-11-01T11:36:27.470Z,101325.22
2022-11-01T11:41:35.216Z,101330.72
2022-11-01T11:46:48.941Z,101329.16
2022-11-01T11:51:54.323Z,101331.19
2022-11-01T11:57:12.044Z,101323.19
2022-11-01T12:02:20.799Z,101354.09
2022-11-01T12:07:27.925Z,101329.38
2022-11-01T12:12:35.095Z,101340.88
2022-11-01T12:17:46.329Z,101348.38
2022-11-01T12:22:53.293Z,101326.47
2022-11-01T12:28:02.220Z,101333.72
2022-11-01T12:38:34.909Z,101312.69
2022-11-01T12:43:53.826Z,101332.75
2022-11-01T12:49:03.241Z,101321.44
2022-11-01T12:54:13.079Z,101328.53
2022-11-01T12:59:25.776Z,101307.44
2022-11-01T13:04:33.490Z,101321.16
2022-11-01T13:09:47.154Z,101301.16
2022-11-01T13:15:04.347Z,101310.06
2022-11-01T13:20:34.666Z,101290.72
2022-11-01T13:25:42.591Z,101292.66
2022-11-01T13:30:55.323Z,101281.56
2022-11-01T13:36:03.418Z,101298.56
2022-11-01T13:41:19.732Z,101290.66
2022-11-01T13:46:44.354Z,101292.50
2022-11-01T13:51:55.165Z,101287.09
2022-11-01T13:57:02.531Z,101298.37
2022-11-01T14:02:50.079Z,101286.03
2022-11-01T14:08:29.051Z,101296.03
2022-11-01T14:13:40.652Z,101312.69
2022-11-01T14:19:20.576Z,101309.16
2022-11-01T14:24:35.189Z,101307.31
2022-11-01T14:29:39.081Z,101304.50
2022-11-01T14:34:45.757Z,101310.94
2022-11-01T14:39:58.071Z,101311.03
2022-11-01T14:45:20.379Z,101303.59
2022-11-01T14:50:29.761Z,101300.56
2022-11-01T14:55:37.534Z,101296.97
2022-11-01T15:00:42.322Z,101300.34
2022-11-01T15:05:48.658Z,101296.91
2022-11-01T15:10:55.728Z,101298.94
2022-11-01T15:16:08.439Z,101304.75
2022-11-01T15:26:26.730Z,101294.37
2022-11-01T15:31:31.085Z,101292.72
2022-11-01T15:36:36.972Z,101288.31
2022-11-01T15:41:42.538Z,101283.00
2022-11-01T15:46:46.662Z,101289.78
2022-11-01T15:51:54.042Z,101285.22
2022-11-01T15:57:03.141Z,101302.13
2022-11-01T16:02:13.976Z,101318.94
2022-11-01T16:07:20.578Z,101316.66
2022-11-01T16:12:30.849Z,101316.91
2022-11-01T16:17:37.335Z,101319.41
2022-11-01T16:22:47.861Z,101329.31
2022-11-01T16:28:05.264Z,101328.44
2022-11-01T16:33:16.969Z,101329.03
2022-11-01T16:38:29.849Z,101321.34
2022-11-01T16:43:36.254Z,101315.19
2022-11-01T16:48:52.119Z,101324.03
2022-11-01T16:53:56.743Z,101309.75
2022-11-01T16:59:08.281Z,101313.97
2022-11-01T17:04:14.094Z,101327.72
2022-11-01T17:09:20.397Z,101320.56
2022-11-01T17:14:26.333Z,101311.06
2022-11-01T17:19:35.074Z,101301.16
2022-11-01T17:24:39.251Z,101303.50
2022-11-01T17:29:44.249Z,101308.78
2022-11-01T17:34:49.260Z,101313.06
2022-11-01T17:39:53.139Z,101300.81
2022-11-01T17:44:58.167Z,101310.22
2022-11-01T17:50:02.385Z,101311.09
2022-11-01T17:55:07.766Z,101310.09
2022-11-01T18:00:13.867Z,101309.78
2022-11-01T18:05:18.610Z,101313.84
2022-11-01T18:10:25.326Z,101317.41
2022-11-01T18:15:39.332Z,101302.75
2022-11-01T18:20:49.898Z,101303.97
2022-11-01T18:25:53.714Z,101309.44
2022-11-01T18:31:00.250Z,101317.53
2022-11-01T18:36:09.465Z,101327.31
2022-11-01T18:41:19.715Z,101308.13
2022-11-01T18:46:27.460Z,101315.03
2022-11-01T18:51:33.311Z,101327.50
2022-11-01T18:56:38.296Z,101331.19
2022-11-01T19:01:43.907Z,101332.13
2022-11-01T19:06:47.763Z,101336.41
2022-11-01T19:11:58.460Z,101347.69
2022-11-01T19:17:04.396Z,101343.03
2022-11-01T19:22:28.784Z,101329.47
2022-11-01T19:27:32.661Z,101322.44
2022-11-01T19:32:37.718Z,101300.03
2022-11-01T19:37:43.248Z,101308.53
2022-11-01T19:42:46.963Z,101290.31
2022-11-01T19:47:52.404Z,101296.47
2022-11-01T19:52:58.612Z,101290.75
2022-11-01T19:58:02.919Z,101298.59
2022-11-01T20:03:21.773Z,101284.50
2022-11-01T20:08:33.055Z,101284.69
2022-11-01T20:13:36.975Z,101290.69
2022-11-01T20:18:42.186Z,101295.13
2022-11-01T20:23:46.009Z,101299.41
2022-11-01T20:28:50.112Z,101309.00
2022-11-01T20:33:55.220Z,101328.94
2022-11-01T20:38:58.887Z,101333.91
2022-11-01T20:44:02.589Z,101345.81
2022-11-01T20:49:08.066Z,101347.28
2022-11-01T20:54:17.470Z,101354.09
2022-11-01T20:59:21.658Z,101351.06
2022-11-01T21:04:27.374Z,101323.88
2022-11-01T21:09:33.427Z,101329.28
2022-11-01T21:14:37.925Z,101350.38
2022-11-01T21:19:43.340Z,101351.13
2022-11-01T21:24:48.830Z,101348.69
2022-11-01T21:29:53.139Z,101346.41
2022-11-01T21:34:58.892Z,101337.16
2022-11-01T21:40:06.737Z,101325.88
2022-11-01T21:45:30.205Z,101322.66
2022-11-01T21:50:35.328Z,101354.25
2022-11-01T21:55:39.045Z,101331.16
2022-11-01T22:00:42.684Z,101315.69
2022-11-01T22:05:47.765Z,101324.94
2022-11-01T22:10:51.450Z,101312.66
2022-11-01T22:15:55.157Z,101304.87
2022-11-01T22:21:00.153Z,101301.56
2022-11-01T22:26:03.993Z,101286.91
2022-11-01T22:31:07.807Z,101272.97
2022-11-01T22:36:20.081Z,101270.47
2022-11-01T22:41:31.603Z,101267.75
2022-11-01T22:46:47.610Z,101261.66
2022-11-01T22:51:55.971Z,101258.75
2022-11-01T22:57:04.148Z,101248.38
2022-11-01T23:02:26.980Z,101239.19
2022-11-01T23:07:35.549Z,101257.31
2022-11-01T23:12:56.935Z,101252.41
2022-11-01T23:18:06.466Z,101252.47
2022-11-01T23:23:16.679Z,101243.53
2022-11-01T23:28:20.695Z,101234.34
2022-11-01T23:33:33.728Z,101245.03
2022-11-01T23:38:41.826Z,101247.81
2022-11-01T23:43:45.774Z,101263.34
2022-11-01T23:48:50.211Z,101272.41
2022-11-01T23:53:57.037Z,101270.47
2022-11-01T23:59:04.245Z,101254.47
